createdAt,value
2022-12-06T00:01:10.739Z,23.30
2022-12-06T00:03:39.780Z,23.23
2022-12-06T00:06:09.271Z,18.92
2022-12-06T00:08:37.695Z,22.42
2022-12-06T00:11:07.684Z,23.08
2022-12-06T00:13:36.140Z,22.50
2022-12-06T00:16:07.752Z,23.63
2022-12-06T00:18:37.095Z,23.77
2022-12-06T00:21:09.719Z,20.25
2022-12-06T00:23:38.622Z,20.65
2022-12-06T00:26:07.722Z,19.25
2022-12-06T00:28:36.123Z,21.02
2022-12-06T00:31:07.767Z,22.50
2022-12-06T00:33:37.009Z,18.90
2022-12-06T00:36:07.770Z,19.33
2022-12-06T00:38:36.519Z,21.58
2022-12-06T00:41:06.747Z,21.55
2022-12-06T00:43:35.465Z,23.02
2022-12-06T00:46:05.810Z,22.45
2022-12-06T00:48:33.962Z,22.67
2022-12-06T00:51:02.126Z,25.17
2022-12-06T00:53:30.224Z,21.05
2022-12-06T00:55:58.090Z,19.52
2022-12-06T00:58:25.939Z,20.27
2022-12-06T01:00:54.394Z,20.95
2022-12-06T01:03:24.074Z,21.20
2022-12-06T01:05:52.329Z,23.58
2022-12-06T01:08:20.758Z,18.98
2022-12-06T01:10:55.573Z,20.27
2022-12-06T01:13:23.513Z,23.20
2022-12-06T01:15:51.892Z,21.77
2022-12-06T01:18:19.691Z,21.27
2022-12-06T01:20:49.265Z,20.88
2022-12-06T01:23:17.329Z,20.33
2022-12-06T01:25:54.488Z,18.70
2022-12-06T01:28:22.389Z,20.35
2022-12-06T01:30:50.351Z,24.73
2022-12-06T01:33:18.279Z,20.20
2022-12-06T01:35:46.294Z,22.50
2022-12-06T01:38:15.637Z,17.85
2022-12-06T01:40:45.805Z,20.73
2022-12-06T01:43:37.757Z,20.67
2022-12-06T01:46:18.797Z,19.02
2022-12-06T01:48:48.605Z,23.58
2022-12-06T01:51:18.212Z,20.13
2022-12-06T01:53:50.152Z,18.73
2022-12-06T01:56:18.227Z,16.10
2022-12-06T01:58:48.131Z,17.92
2022-12-06T02:01:16.230Z,17.65
2022-12-06T02:03:45.408Z,18.52
2022-12-06T02:06:13.691Z,20.75
2022-12-06T02:08:41.795Z,19.55
2022-12-06T02:11:11.282Z,22.20
2022-12-06T02:13:40.408Z,22.35
2022-12-06T02:16:21.773Z,20.13
2022-12-06T02:18:54.824Z,21.48
2022-12-06T02:21:34.945Z,21.42
2022-12-06T02:24:28.400Z,22.98
2022-12-06T02:27:10.511Z,23.35
2022-12-06T02:30:13.319Z,26.98
2022-12-06T02:32:54.885Z,23.45
2022-12-06T02:35:31.345Z,25.38
2022-12-06T02:38:11.464Z,21.92
2022-12-06T02:40:46.042Z,24.13
2022-12-06T02:43:17.552Z,25.52
2022-12-06T02:45:49.006Z,20.73
2022-12-06T02:48:21.231Z,22.10
2022-12-06T02:50:52.871Z,21.52
2022-12-06T02:53:23.482Z,23.05
2022-12-06T02:55:52.492Z,20.00
2022-12-06T02:58:20.412Z,21.02
2022-12-06T03:00:51.756Z,20.27
2022-12-06T03:03:50.416Z,22.30
2022-12-06T03:06:45.499Z,20.27
2022-12-06T03:09:26.038Z,22.38
2022-12-06T03:12:02.897Z,20.42
2022-12-06T03:14:39.275Z,21.02
2022-12-06T03:17:17.002Z,27.02
2022-12-06T03:19:49.807Z,23.63
2022-12-06T03:22:24.291Z,23.23
2022-12-06T03:24:53.789Z,24.52
2022-12-06T03:27:23.654Z,25.38
2022-12-06T03:29:56.944Z,23.45
2022-12-06T03:32:31.327Z,21.45
2022-12-06T03:35:06.905Z,22.10
2022-12-06T03:37:38.954Z,22.98
2022-12-06T03:40:12.719Z,29.23
2022-12-06T03:42:40.775Z,23.35
2022-12-06T03:45:12.025Z,19.42
2022-12-06T03:47:48.090Z,26.02
2022-12-06T03:50:21.847Z,24.13
2022-12-06T03:52:52.343Z,21.63
2022-12-06T03:55:20.228Z,20.90
2022-12-06T03:57:48.071Z,21.60
2022-12-06T04:00:17.785Z,19.67
2022-12-06T04:02:45.810Z,24.58
2022-12-06T04:05:14.118Z,21.50
2022-12-06T04:07:43.447Z,21.17
2022-12-06T04:10:11.995Z,20.13
2022-12-06T04:12:57.162Z,22.85
2022-12-06T04:15:25.070Z,22.65
2022-12-06T04:18:10.421Z,21.83
2022-12-06T04:20:59.812Z,20.77
2022-12-06T04:23:29.743Z,18.38
2022-12-06T04:25:57.557Z,21.85
2022-12-06T04:28:42.662Z,19.10
2022-12-06T04:31:27.898Z,16.27
2022-12-06T04:34:12.997Z,18.23
2022-12-06T04:36:59.306Z,15.38
2022-12-06T04:39:29.125Z,15.20
2022-12-06T04:42:14.803Z,17.20
2022-12-06T04:44:42.948Z,14.82
2022-12-06T04:47:10.946Z,15.43
2022-12-06T04:49:39.335Z,15.50
2022-12-06T04:52:08.644Z,16.02
2022-12-06T04:54:38.643Z,12.52
2022-12-06T04:57:10.974Z,13.32
2022-12-06T04:59:39.855Z,14.80
2022-12-06T05:02:10.023Z,11.02
2022-12-06T05:04:37.890Z,12.15
2022-12-06T05:07:05.985Z,10.40
2022-12-06T05:09:33.875Z,10.48
2022-12-06T05:12:03.147Z,9.38
2022-12-06T05:14:31.252Z,12.10
2022-12-06T05:16:59.392Z,9.30
2022-12-06T05:19:27.861Z,10.73
2022-12-06T05:21:55.715Z,9.27
2022-12-06T05:24:23.609Z,7.68
2022-12-06T05:26:51.497Z,10.27
2022-12-06T05:29:20.921Z,8.98
2022-12-06T05:31:48.840Z,7.97
2022-12-06T05:34:16.785Z,6.93
2022-12-06T05:36:45.906Z,6.40
2022-12-06T05:39:13.758Z,14.23
2022-12-06T05:41:41.620Z,9.80
2022-12-06T05:44:11.533Z,9.23
2022-12-06T05:46:40.745Z,10.88
2022-12-06T05:49:08.700Z,11.82
2022-12-06T05:51:36.571Z,9.93
2022-12-06T05:54:06.598Z,11.68
2022-12-06T05:56:34.804Z,8.77
2022-12-06T05:59:03.339Z,9.38
2022-12-06T06:01:31.238Z,11.60
2022-12-06T06:04:01.745Z,10.15
2022-12-06T06:06:30.009Z,11.52
2022-12-06T06:08:57.885Z,10.18
2022-12-06T06:11:25.718Z,10.45
2022-12-06T06:13:54.463Z,10.45
2022-12-06T06:16:22.513Z,10.40
2022-12-06T06:18:50.400Z,13.10
2022-12-06T06:21:19.625Z,13.70
2022-12-06T06:23:47.510Z,9.82
2022-12-06T06:26:15.317Z,10.15
2022-12-06T06:28:43.199Z,11.43
2022-12-06T06:31:11.092Z,11.75
2022-12-06T06:33:39.029Z,12.73
2022-12-06T06:36:07.483Z,13.27
2022-12-06T06:38:36.860Z,13.20
2022-12-06T06:41:05.459Z,12.95
2022-12-06T06:43:33.724Z,11.93
2022-12-06T06:46:03.322Z,11.23
2022-12-06T06:48:33.114Z,11.23
2022-12-06T06:51:03.399Z,12.93
2022-12-06T06:53:31.399Z,11.85
2022-12-06T06:56:00.646Z,14.18
2022-12-06T06:58:28.554Z,14.15
2022-12-06T07:00:57.880Z,16.58
2022-12-06T07:03:26.708Z,11.35
2022-12-06T07:05:56.019Z,11.95
2022-12-06T07:08:25.273Z,10.40
2022-12-06T07:10:54.243Z,12.60
2022-12-06T07:13:24.899Z,12.95
2022-12-06T07:15:53.228Z,12.15
2022-12-06T07:18:22.042Z,10.70
2022-12-06T07:20:50.495Z,10.10
2022-12-06T07:23:19.729Z,10.50
2022-12-06T07:25:47.548Z,10.98
2022-12-06T07:28:15.399Z,9.05
2022-12-06T07:30:46.185Z,8.85
2022-12-06T07:33:14.335Z,13.63
2022-12-06T07:36:11.047Z,8.80
2022-12-06T07:38:30.281Z,10.23
2022-12-06T07:41:04.834Z,10.52
2022-12-06T07:43:50.555Z,11.75
2022-12-06T07:46:19.840Z,10.57
2022-12-06T07:48:47.767Z,10.20
2022-12-06T07:51:15.670Z,11.23
2022-12-06T07:53:43.644Z,11.77
2022-12-06T07:56:11.966Z,12.25
2022-12-06T07:58:39.914Z,13.38
2022-12-06T08:01:07.982Z,11.20
2022-12-06T08:03:37.485Z,10.82
2022-12-06T08:06:05.826Z,12.77
2022-12-06T08:08:33.890Z,11.13
2022-12-06T08:11:02.715Z,11.25
2022-12-06T08:13:31.404Z,10.57
2022-12-06T08:15:59.684Z,11.63
2022-12-06T08:18:27.751Z,13.05
2022-12-06T08:20:58.870Z,11.05
2022-12-06T08:23:33.697Z,12.27
2022-12-06T08:26:04.281Z,11.82
2022-12-06T08:28:33.421Z,10.52
2022-12-06T08:31:03.215Z,10.88
2022-12-06T08:33:34.307Z,9.00
2022-12-06T08:36:08.989Z,10.77
2022-12-06T08:38:37.321Z,9.27
2022-12-06T08:41:05.952Z,13.20
2022-12-06T08:43:34.002Z,6.53
2022-12-06T08:46:02.092Z,7.18
2022-12-06T08:48:30.130Z,7.22
2022-12-06T08:51:02.646Z,7.32
2022-12-06T08:53:31.946Z,9.83
2022-12-06T08:56:02.836Z,8.55
2022-12-06T08:58:31.398Z,6.22
2022-12-06T09:00:59.472Z,9.30
2022-12-06T09:03:27.730Z,6.20
2022-12-06T09:05:55.665Z,8.45
2022-12-06T09:08:24.013Z,7.40
2022-12-06T09:10:53.491Z,6.32
2022-12-06T09:13:21.715Z,6.70
2022-12-06T09:15:49.780Z,6.57
2022-12-06T09:18:17.819Z,9.55
2022-12-06T09:20:45.931Z,7.88
2022-12-06T09:23:14.178Z,8.38
2022-12-06T09:25:43.311Z,5.47
2022-12-06T09:28:13.384Z,7.35
2022-12-06T09:30:41.411Z,6.72
2022-12-06T09:33:09.427Z,7.18
2022-12-06T09:35:38.035Z,6.70
2022-12-06T09:38:07.121Z,7.65
2022-12-06T09:40:43.319Z,7.00
2022-12-06T09:43:27.340Z,7.28
2022-12-06T09:46:12.021Z,6.07
2022-12-06T09:49:08.915Z,10.93
2022-12-06T09:51:51.645Z,7.25
2022-12-06T09:54:33.887Z,6.50
2022-12-06T09:57:09.301Z,7.82
2022-12-06T09:59:51.235Z,7.20
2022-12-06T10:02:33.200Z,5.47
2022-12-06T10:05:21.039Z,6.72
2022-12-06T10:07:59.976Z,6.93
2022-12-06T10:10:38.019Z,6.78
2022-12-06T10:13:14.202Z,11.63
2022-12-06T10:15:54.210Z,8.73
2022-12-06T10:18:42.100Z,6.47
2022-12-06T10:21:17.584Z,7.93
2022-12-06T10:24:01.790Z,8.95
2022-12-06T10:26:38.285Z,8.60
2022-12-06T10:29:16.348Z,7.10
2022-12-06T10:31:57.531Z,6.82
2022-12-06T10:34:45.810Z,8.40
2022-12-06T10:37:32.501Z,6.25
2022-12-06T10:42:38.541Z,6.85
2022-12-06T10:45:32.420Z,12.23
2022-12-06T10:48:07.992Z,6.22
2022-12-06T10:50:40.510Z,4.90
2022-12-06T10:53:15.555Z,6.47
2022-12-06T10:55:50.290Z,6.47
2022-12-06T10:58:29.848Z,6.03
2022-12-06T11:01:00.609Z,8.13
2022-12-06T11:03:35.433Z,5.32
2022-12-06T11:06:10.600Z,6.88
2022-12-06T11:08:43.434Z,11.38
2022-12-06T11:11:16.650Z,7.95
2022-12-06T11:13:48.944Z,9.50
2022-12-06T11:16:19.933Z,9.37
2022-12-06T11:18:50.277Z,10.48
2022-12-06T11:21:28.187Z,8.13
2022-12-06T11:24:02.752Z,8.65
2022-12-06T11:26:38.487Z,7.90
2022-12-06T11:29:13.058Z,10.93
2022-12-06T11:31:46.859Z,13.35
2022-12-06T11:34:20.221Z,11.35
2022-12-06T11:39:24.810Z,11.93
2022-12-06T11:41:57.167Z,9.25
2022-12-06T11:44:27.731Z,10.87
2022-12-06T11:46:58.711Z,13.00
2022-12-06T11:49:32.917Z,12.00
2022-12-06T11:52:07.187Z,14.40
2022-12-06T11:54:39.577Z,9.63
2022-12-06T11:57:22.242Z,7.60
2022-12-06T12:00:15.143Z,9.43
2022-12-06T12:02:44.278Z,11.75
2022-12-06T12:05:20.720Z,9.35
2022-12-06T12:07:51.731Z,7.90
2022-12-06T12:10:29.365Z,9.10
2022-12-06T12:13:15.043Z,7.45
2022-12-06T12:15:52.382Z,7.70
2022-12-06T12:18:26.269Z,9.40
2022-12-06T12:20:57.547Z,10.30
2022-12-06T12:23:29.505Z,8.60
2022-12-06T12:26:02.362Z,8.27
2022-12-06T12:28:32.234Z,6.40
2022-12-06T12:31:01.768Z,8.18
2022-12-06T12:33:30.383Z,7.43
2022-12-06T12:36:16.415Z,7.60
2022-12-06T12:38:51.321Z,6.47
2022-12-06T12:41:27.141Z,5.68
2022-12-06T12:44:28.545Z,6.63
2022-12-06T12:46:53.801Z,8.27
2022-12-06T12:49:31.977Z,6.40
2022-12-06T12:52:03.229Z,5.78
2022-12-06T12:54:33.555Z,4.35
2022-12-06T12:57:03.398Z,5.97
2022-12-06T12:59:38.533Z,5.47
2022-12-06T13:02:18.626Z,4.88
2022-12-06T13:04:59.838Z,3.95
2022-12-06T13:07:43.214Z,3.22
2022-12-06T13:10:20.143Z,4.55
2022-12-06T13:12:51.979Z,7.30
2022-12-06T13:15:24.922Z,4.53
2022-12-06T13:17:59.977Z,4.32
2022-12-06T13:20:31.271Z,4.45
2022-12-06T13:23:04.866Z,5.95
2022-12-06T13:25:33.321Z,5.00
2022-12-06T13:28:05.773Z,6.03
2022-12-06T13:30:36.729Z,4.30
2022-12-06T13:33:08.397Z,5.40
2022-12-06T13:35:40.327Z,4.05
2022-12-06T13:38:27.225Z,5.35
2022-12-06T13:40:56.482Z,5.18
2022-12-06T13:44:00.467Z,5.93
2022-12-06T13:49:05.863Z,6.20
2022-12-06T13:51:49.829Z,5.18
2022-12-06T13:54:39.952Z,6.55
2022-12-06T13:57:25.955Z,7.30
2022-12-06T13:59:53.879Z,7.57
2022-12-06T14:02:51.661Z,8.05
2022-12-06T14:08:37.301Z,7.28
2022-12-06T14:11:19.780Z,5.43
2022-12-06T14:13:49.595Z,7.22
2022-12-06T14:16:26.802Z,7.45
2022-12-06T14:18:54.828Z,7.80
2022-12-06T14:21:27.480Z,8.88
2022-12-06T14:23:55.396Z,6.32
2022-12-06T14:26:27.448Z,6.28
2022-12-06T14:28:57.473Z,8.70
2022-12-06T14:31:28.255Z,8.10
2022-12-06T14:33:57.370Z,7.32
2022-12-06T14:36:29.077Z,6.53
2022-12-06T14:39:02.691Z,6.90
2022-12-06T14:41:53.299Z,6.05
2022-12-06T14:44:22.899Z,6.00
2022-12-06T14:46:51.077Z,9.85
2022-12-06T14:49:39.596Z,7.95
2022-12-06T14:52:26.343Z,6.55
2022-12-06T14:55:09.551Z,7.18
2022-12-06T14:57:46.621Z,6.72
2022-12-06T15:00:26.274Z,7.07
2022-12-06T15:03:23.862Z,7.47
2022-12-06T15:06:09.252Z,8.32
2022-12-06T15:08:39.228Z,6.20
2022-12-06T15:11:42.507Z,6.85
2022-12-06T15:14:17.276Z,6.88
2022-12-06T15:16:46.766Z,8.63
2022-12-06T15:19:16.135Z,10.25
2022-12-06T15:21:43.979Z,6.70
2022-12-06T15:24:18.107Z,7.20
2022-12-06T15:26:46.109Z,8.02
2022-12-06T15:29:15.798Z,7.13
2022-12-06T15:31:45.719Z,8.07
2022-12-06T15:34:25.160Z,9.60
2022-12-06T15:37:09.045Z,8.27
2022-12-06T15:39:41.400Z,9.65
2022-12-06T15:42:16.932Z,8.32
2022-12-06T15:44:49.597Z,6.70
2022-12-06T15:47:18.181Z,6.53
2022-12-06T15:49:46.064Z,6.95
2022-12-06T15:52:17.407Z,5.72
2022-12-06T15:54:45.585Z,7.57
2022-12-06T15:57:13.460Z,7.70
2022-12-06T15:59:41.329Z,8.05
2022-12-06T16:02:16.413Z,11.25
2022-12-06T16:04:45.358Z,7.47
2022-12-06T16:07:20.005Z,9.48
2022-12-06T16:09:48.449Z,7.25
2022-12-06T16:12:16.344Z,8.07
2022-12-06T16:14:44.210Z,6.70
2022-12-06T16:17:12.050Z,7.15
2022-12-06T16:19:59.071Z,6.82
2022-12-06T16:22:40.799Z,7.70
2022-12-06T16:25:09.393Z,9.85
2022-12-06T16:27:37.346Z,9.15
2022-12-06T16:30:05.917Z,12.13
2022-12-06T16:32:34.129Z,9.70
2022-12-06T16:35:03.704Z,8.20
2022-12-06T16:37:31.756Z,8.75
2022-12-06T16:39:59.603Z,9.13
2022-12-06T16:42:27.444Z,9.63
2022-12-06T16:44:55.281Z,9.18
2022-12-06T16:49:49.867Z,8.95
2022-12-06T16:52:19.124Z,8.43
2022-12-06T16:54:46.991Z,8.85
2022-12-06T16:57:15.640Z,9.23
2022-12-06T16:59:43.615Z,8.38
2022-12-06T17:02:27.449Z,11.88
2022-12-06T17:04:56.230Z,9.07
2022-12-06T17:07:25.444Z,5.45
2022-12-06T17:09:54.049Z,10.40
2022-12-06T17:12:21.930Z,8.23
2022-12-06T17:14:49.810Z,8.20
2022-12-06T17:17:20.171Z,6.57
2022-12-06T17:19:48.562Z,6.97
2022-12-06T17:22:18.638Z,9.13
2022-12-06T17:24:47.855Z,7.82
2022-12-06T17:27:16.730Z,7.18
2022-12-06T17:29:45.434Z,7.72
2022-12-06T17:32:14.036Z,8.88
2022-12-06T17:34:41.885Z,5.63
2022-12-06T17:37:09.811Z,6.88
2022-12-06T17:39:37.777Z,6.28
2022-12-06T17:42:24.470Z,7.40
2022-12-06T17:44:52.609Z,7.20
2022-12-06T17:47:20.913Z,9.18
2022-12-06T17:49:48.968Z,8.15
2022-12-06T17:52:16.960Z,7.22
2022-12-06T17:54:44.816Z,10.85
2022-12-06T17:57:17.590Z,10.80
2022-12-06T17:59:46.932Z,8.00
2022-12-06T18:02:17.478Z,10.35
2022-12-06T18:04:46.508Z,9.63
2022-12-06T18:07:15.084Z,12.38
2022-12-06T18:09:42.944Z,12.52
2022-12-06T18:12:13.134Z,13.38
2022-12-06T18:14:42.335Z,11.10
2022-12-06T18:17:10.483Z,11.18
2022-12-06T18:19:40.359Z,13.23
2022-12-06T18:22:08.587Z,12.43
2022-12-06T18:24:36.714Z,12.23
2022-12-06T18:27:05.457Z,11.40
2022-12-06T18:29:34.271Z,12.05
2022-12-06T18:32:04.251Z,15.02
2022-12-06T18:34:32.342Z,12.13
2022-12-06T18:37:00.279Z,11.88
2022-12-06T18:39:28.255Z,16.10
2022-12-06T18:41:56.475Z,13.48
2022-12-06T18:44:24.643Z,12.18
2022-12-06T18:46:52.573Z,14.65
2022-12-06T18:49:21.815Z,14.60
2022-12-06T18:51:49.747Z,14.35
2022-12-06T18:54:17.656Z,13.27
2022-12-06T18:56:45.499Z,10.68
2022-12-06T18:59:13.625Z,13.52
2022-12-06T19:01:42.137Z,12.82
2022-12-06T19:04:14.310Z,16.25
2022-12-06T19:06:45.416Z,15.45
2022-12-06T19:09:15.542Z,15.63
2022-12-06T19:11:46.717Z,14.20
2022-12-06T19:14:15.680Z,15.73
2022-12-06T19:16:45.851Z,14.93
2022-12-06T19:19:17.094Z,15.85
2022-12-06T19:21:46.900Z,15.52
2022-12-06T19:24:17.139Z,16.63
2022-12-06T19:26:45.280Z,13.73
2022-12-06T19:29:13.818Z,17.00
2022-12-06T19:31:41.744Z,18.13
2022-12-06T19:34:15.498Z,15.50
2022-12-06T19:36:43.647Z,16.10
2022-12-06T19:39:13.761Z,16.42
2022-12-06T19:42:00.045Z,13.65
2022-12-06T19:44:28.862Z,13.75
2022-12-06T19:46:57.572Z,17.52
2022-12-06T19:49:27.222Z,13.95
2022-12-06T19:51:55.228Z,15.63
2022-12-06T19:54:25.996Z,13.45
2022-12-06T19:56:56.921Z,15.20
2022-12-06T19:59:27.019Z,15.88
2022-12-06T20:01:57.975Z,15.35
2022-12-06T20:04:28.971Z,13.65
2022-12-06T20:06:56.876Z,16.55
2022-12-06T20:09:28.355Z,16.60
2022-12-06T20:12:02.036Z,16.75
2022-12-06T20:14:31.262Z,17.35
2022-12-06T20:16:59.131Z,15.48
2022-12-06T20:19:27.049Z,21.00
2022-12-06T20:21:54.919Z,12.95
2022-12-06T20:24:24.337Z,18.17
2022-12-06T20:26:54.994Z,17.13
2022-12-06T20:29:23.774Z,17.45
2022-12-06T20:31:52.295Z,18.48
2022-12-06T20:34:20.443Z,17.27
2022-12-06T20:36:48.631Z,16.25
2022-12-06T20:39:21.852Z,14.77
2022-12-06T20:44:19.734Z,14.77
2022-12-06T20:46:49.554Z,19.05
2022-12-06T20:49:17.512Z,17.17
2022-12-06T20:51:49.694Z,15.18
2022-12-06T20:54:19.800Z,12.65
2022-12-06T20:56:51.412Z,13.02
2022-12-06T20:59:21.425Z,14.13
2022-12-06T21:01:49.410Z,14.10
2022-12-06T21:04:17.924Z,12.07
2022-12-06T21:06:45.841Z,13.80
2022-12-06T21:09:13.785Z,16.98
2022-12-06T21:11:41.720Z,13.02
2022-12-06T21:14:12.434Z,14.60
2022-12-06T21:16:43.207Z,12.43
2022-12-06T21:19:13.779Z,12.40
2022-12-06T21:21:44.531Z,12.60
2022-12-06T21:24:14.188Z,9.50
2022-12-06T21:26:42.215Z,9.32
2022-12-06T21:29:15.872Z,8.70
2022-12-06T21:31:45.682Z,5.38
2022-12-06T21:34:14.431Z,6.47
2022-12-06T21:36:44.993Z,5.25
2022-12-06T21:39:13.467Z,5.38
2022-12-06T21:41:41.336Z,6.43
2022-12-06T21:44:09.247Z,4.68
2022-12-06T21:46:37.182Z,4.50
2022-12-06T21:49:06.483Z,7.15
2022-12-06T21:51:34.329Z,5.00
2022-12-06T21:54:02.207Z,4.68
2022-12-06T21:56:31.569Z,5.13
2022-12-06T21:59:01.237Z,5.95
2022-12-06T22:01:30.554Z,4.65
2022-12-06T22:04:00.333Z,3.40
2022-12-06T22:06:31.401Z,3.60
2022-12-06T22:09:01.323Z,4.43
2022-12-06T22:11:30.672Z,3.55
2022-12-06T22:13:59.590Z,4.72
2022-12-06T22:16:28.302Z,5.18
2022-12-06T22:18:56.470Z,3.80
2022-12-06T22:21:26.989Z,3.88
2022-12-06T22:23:57.964Z,7.30
2022-12-06T22:26:28.172Z,5.65
2022-12-06T22:28:56.417Z,6.15
2022-12-06T22:31:25.929Z,7.68
2022-12-06T22:33:54.556Z,6.72
2022-12-06T22:36:22.677Z,6.60
2022-12-06T22:38:51.215Z,6.85
2022-12-06T22:41:21.188Z,8.98
2022-12-06T22:43:52.157Z,8.50
2022-12-06T22:46:20.868Z,11.07
2022-12-06T22:48:49.449Z,10.23
2022-12-06T22:51:21.859Z,10.82
2022-12-06T22:53:54.496Z,13.50
2022-12-06T22:56:24.050Z,8.73
2022-12-06T22:58:53.674Z,11.73
2022-12-06T23:01:26.832Z,14.65
2022-12-06T23:03:55.541Z,11.82
2022-12-06T23:06:25.307Z,12.98
2022-12-06T23:08:54.328Z,12.90
2022-12-06T23:11:25.996Z,14.30
2022-12-06T23:13:54.823Z,19.30
2022-12-06T23:16:24.825Z,21.85
2022-12-06T23:18:52.972Z,16.58
2022-12-06T23:21:22.637Z,17.73
2022-12-06T23:23:52.396Z,15.80
2022-12-06T23:26:24.877Z,17.15
2022-12-06T23:28:53.015Z,19.75
2022-12-06T23:31:22.779Z,19.05
2022-12-06T23:33:53.667Z,20.40
2022-12-06T23:36:23.807Z,15.80
2022-12-06T23:38:52.421Z,17.75
2022-12-06T23:41:21.908Z,17.20
2022-12-06T23:43:51.863Z,14.68
2022-12-06T23:46:22.930Z,17.30
2022-12-06T23:48:50.929Z,16.35
2022-12-06T23:51:20.695Z,17.42
2022-12-06T23:53:52.355Z,19.27
2022-12-06T23:56:22.376Z,15.23
2022-12-06T23:58:52.950Z,15.32
